Time;durP1;ratioP1;P1;durP2;ratioP2;P2;SDS_P1;SDS_P2;PMS_P1;PMS_P2;Temp;Humidity;BMP_temperature;BMP_pressure;BME280_temperature;BME280_humidity;BME280_pressure;Samples;Min_cycle;Max_cycle;Signal;HPM_P1;HPM_P2
2023/03/21 00:02:32;;;;;;;91.00;40.88;;;;;;;;;;4815610;29;20054;-78
2023/03/21 00:05:19;;;;;;;94.57;40.80;;;;;;;;;;4832191;29;20496;-79
2023/03/21 00:08:04;;;;;;;93.90;41.50;;;;;;;;;;4815502;29;20407;-78
2023/03/21 00:11:01;;;;;;;92.78;40.15;;;;;;;;;;4832368;29;20050;-79
2023/03/21 00:13:47;;;;;;;99.57;39.65;;;;;;;;;;4814832;29;21346;-78
2023/03/21 00:16:34;;;;;;;91.70;38.17;;;;;;;;;;4832309;29;20058;-79
2023/03/21 00:19:23;;;;;;;83.25;36.92;;;;;;;;;;4824670;29;20042;-81
2023/03/21 00:22:08;;;;;;;85.10;38.08;;;;;;;;;;4807200;29;20050;-78
2023/03/21 00:24:55;;;;;;;89.63;35.83;;;;;;;;;;4832269;29;20041;-78
2023/03/21 00:27:40;;;;;;;80.28;34.92;;;;;;;;;;4831930;29;20057;-78
2023/03/21 00:30:26;;;;;;;75.35;35.28;;;;;;;;;;4815197;29;20050;-78
2023/03/21 00:33:12;;;;;;;64.35;30.70;;;;;;;;;;4824553;29;20049;-78
2023/03/21 00:35:57;;;;;;;58.47;28.88;;;;;;;;;;4806852;29;20058;-78
2023/03/21 00:38:43;;;;;;;62.72;27.27;;;;;;;;;;4811880;29;20046;-78
2023/03/21 00:41:29;;;;;;;55.00;26.77;;;;;;;;;;4831202;29;20053;-79
2023/03/21 00:44:16;;;;;;;54.13;27.33;;;;;;;;;;4831906;29;20057;-79
2023/03/21 00:47:04;;;;;;;60.30;27.73;;;;;;;;;;4822121;29;20403;-79
2023/03/21 00:49:49;;;;;;;56.80;27.40;;;;;;;;;;4814944;29;20158;-79
2023/03/21 00:52:37;;;;;;;54.97;26.73;;;;;;;;;;4814749;29;20038;-80
2023/03/21 00:55:22;;;;;;;46.55;24.20;;;;;;;;;;4816884;29;20042;-79
2023/03/21 00:58:07;;;;;;;48.65;24.50;;;;;;;;;;4823346;29;20050;-80
2023/03/21 01:00:53;;;;;;;49.83;24.15;;;;;;;;;;4831550;29;20050;-80
2023/03/21 01:03:46;;;;;;;45.80;23.27;;;;;;;;;;4813739;29;20050;-79
2023/03/21 01:06:39;;;;;;;52.63;23.08;;;;;;;;;;4813936;29;20046;-79
2023/03/21 01:09:26;;;;;;;31.98;17.85;;;;;;;;;;4825111;29;20055;-80
2023/03/21 01:12:11;;;;;;;37.03;18.25;;;;;;;;;;4823113;29;20077;-79
2023/03/21 01:14:57;;;;;;;41.63;19.85;;;;;;;;;;4807380;29;20054;-80
2023/03/21 01:17:42;;;;;;;71.32;26.05;;;;;;;;;;4825886;29;20050;-80
2023/03/21 01:20:27;;;;;;;64.38;25.33;;;;;;;;;;4817382;29;20408;-80
2023/03/21 01:23:14;;;;;;;62.63;25.23;;;;;;;;;;4806582;29;20042;-79
2023/03/21 01:26:02;;;;;;;54.70;21.90;;;;;;;;;;4814173;29;20050;-80
2023/03/21 01:28:48;;;;;;;37.97;16.30;;;;;;;;;;4836865;29;20046;-79
2023/03/21 01:31:33;;;;;;;25.00;12.57;;;;;;;;;;4829993;29;20046;-80
2023/03/21 01:34:19;;;;;;;25.95;11.00;;;;;;;;;;4831167;29;20046;-79
2023/03/21 01:37:05;;;;;;;24.27;12.98;;;;;;;;;;4805755;29;20054;-79
2023/03/21 01:39:56;;;;;;;37.55;17.48;;;;;;;;;;4806567;29;20047;-79
2023/03/21 01:42:41;;;;;;;59.67;27.73;;;;;;;;;;4805997;29;20054;-79
2023/03/21 01:46:04;;;;;;;54.67;24.80;;;;;;;;;;4805832;29;20046;-79
2023/03/21 01:49:40;;;;;;;62.97;23.92;;;;;;;;;;4811167;29;20050;-79
2023/03/21 01:52:37;;;;;;;51.28;23.88;;;;;;;;;;4831428;29;20050;-79
2023/03/21 01:55:27;;;;;;;44.85;21.20;;;;;;;;;;4823895;29;20050;-79
2023/03/21 01:58:17;;;;;;;45.30;18.92;;;;;;;;;;4811043;29;20045;-80
2023/03/21 02:01:11;;;;;;;;;;;;;;;;;;4823660;29;20050;-79
2023/03/21 02:04:02;;;;;;;25.42;13.70;;;;;;;;;;4836798;29;20299;-80
2023/03/21 02:07:10;;;;;;;25.30;13.55;;;;;;;;;;4831463;29;20054;-79
2023/03/21 02:10:08;;;;;;;28.23;13.98;;;;;;;;;;4823327;29;20054;-79
2023/03/21 02:12:57;;;;;;;24.63;12.10;;;;;;;;;;4836019;29;20399;-79
2023/03/21 02:16:01;;;;;;;17.90;10.32;;;;;;;;;;4836317;29;20061;-79
2023/03/21 02:19:10;;;;;;;20.73;10.27;;;;;;;;;;4822637;29;20050;-79
2023/03/21 02:22:09;;;;;;;20.58;10.73;;;;;;;;;;4810838;29;20042;-79
2023/03/21 02:25:23;;;;;;;20.70;9.73;;;;;;;;;;4805106;29;20050;-79
2023/03/21 02:28:29;;;;;;;16.13;9.80;;;;;;;;;;4810606;29;20038;-79
2023/03/21 02:31:35;;;;;;;17.42;10.10;;;;;;;;;;4836357;29;20050;-80
2023/03/21 02:34:38;;;;;;;;;;;;;;;;;;4836600;29;20058;-79
2023/03/21 02:37:41;;;;;;;21.42;10.05;;;;;;;;;;4823131;29;19925;-79
2023/03/21 02:40:51;;;;;;;17.05;9.63;;;;;;;;;;4822958;29;20047;-79
2023/03/21 02:43:38;;;;;;;18.15;9.40;;;;;;;;;;4823265;29;20042;-80
2023/03/21 02:46:33;;;;;;;24.17;9.80;;;;;;;;;;4829434;29;20054;-79
2023/03/21 02:49:32;;;;;;;20.13;9.40;;;;;;;;;;4810239;29;20050;-79
2023/03/21 02:52:23;;;;;;;16.45;8.65;;;;;;;;;;4835206;29;20045;-79
2023/03/21 02:55:14;;;;;;;19.63;9.10;;;;;;;;;;4822024;29;20053;-80
2023/03/21 02:58:15;;;;;;;14.35;8.30;;;;;;;;;;4804992;29;20051;-79
2023/03/21 03:01:07;;;;;;;20.42;10.30;;;;;;;;;;4830250;29;20046;-79
2023/03/21 03:03:57;;;;;;;16.75;9.15;;;;;;;;;;4822113;29;20043;-79
2023/03/21 03:07:17;;;;;;;16.35;9.30;;;;;;;;;;4804268;29;20047;-79
2023/03/21 03:10:22;;;;;;;19.85;11.60;;;;;;;;;;4829087;29;20050;-79
2023/03/21 03:13:14;;;;;;;41.58;19.05;;;;;;;;;;4798441;29;20047;-79
2023/03/21 03:16:12;;;;;;;40.20;17.27;;;;;;;;;;4812199;29;20066;-79
2023/03/21 03:19:00;;;;;;;21.33;12.35;;;;;;;;;;4809959;29;20058;-80
2023/03/21 03:21:52;;;;;;;16.05;10.20;;;;;;;;;;4817913;29;20054;-80
2023/03/21 03:24:46;;;;;;;20.50;10.65;;;;;;;;;;4829382;29;20054;-79
2023/03/21 03:27:36;;;;;;;18.73;10.73;;;;;;;;;;4821089;29;20045;-78
2023/03/21 03:30:25;;;;;;;19.15;10.07;;;;;;;;;;4804680;29;20059;-79
2023/03/21 03:33:13;;;;;;;15.10;9.73;;;;;;;;;;4837216;29;20057;-78
2023/03/21 03:35:59;;;;;;;20.50;11.75;;;;;;;;;;4825606;29;20062;-79
2023/03/21 03:38:47;;;;;;;34.97;18.13;;;;;;;;;;4812029;29;20440;-79
2023/03/21 03:41:40;;;;;;;32.65;16.98;;;;;;;;;;4824929;29;20496;-80
2023/03/21 03:44:27;;;;;;;38.35;17.27;;;;;;;;;;4824793;29;20054;-78
2023/03/21 03:47:30;;;;;;;25.33;13.23;;;;;;;;;;4821483;29;20051;-79
2023/03/21 03:50:15;;;;;;;25.15;12.52;;;;;;;;;;4824880;29;20046;-78
2023/03/21 03:53:12;;;;;;;16.70;10.13;;;;;;;;;;4832554;29;20050;-79
2023/03/21 03:55:59;;;;;;;17.13;11.30;;;;;;;;;;4815622;29;20059;-79
2023/03/21 03:58:44;;;;;;;24.38;12.48;;;;;;;;;;4808409;29;20042;-80
2023/03/21 04:01:29;;;;;;;33.33;14.70;;;;;;;;;;4808302;29;20399;-79
2023/03/21 04:04:15;;;;;;;25.45;14.77;;;;;;;;;;4795000;29;20050;-79
2023/03/21 04:07:02;;;;;;;37.53;18.52;;;;;;;;;;4831689;29;20051;-79
2023/03/21 04:09:47;;;;;;;41.05;20.52;;;;;;;;;;4831431;29;20058;-78
2023/03/21 04:12:36;;;;;;;34.90;17.85;;;;;;;;;;4807165;29;20046;-79
2023/03/21 04:15:40;;;;;;;27.38;16.30;;;;;;;;;;4815434;29;20058;-79
2023/03/21 04:18:32;;;;;;;48.05;23.45;;;;;;;;;;4824151;29;20057;-78
2023/03/21 04:21:16;;;;;;;28.90;16.63;;;;;;;;;;4806893;29;20054;-78
2023/03/21 04:24:02;;;;;;;27.83;15.45;;;;;;;;;;4807705;29;20488;-80
2023/03/21 04:26:48;;;;;;;35.15;17.02;;;;;;;;;;4807493;29;20496;-79
2023/03/21 04:29:52;;;;;;;40.53;19.77;;;;;;;;;;4824306;29;20050;-80
2023/03/21 04:32:52;;;;;;;28.02;13.63;;;;;;;;;;4824241;29;20141;-80
2023/03/21 04:35:38;;;;;;;18.83;10.27;;;;;;;;;;4815111;29;20051;-80
2023/03/21 04:38:29;;;;;;;17.85;9.20;;;;;;;;;;4807281;29;20054;-79
2023/03/21 04:41:18;;;;;;;16.50;9.18;;;;;;;;;;4810515;29;20041;-79
2023/03/21 04:44:03;;;;;;;14.55;9.23;;;;;;;;;;4807585;29;20412;-79
2023/03/21 04:46:49;;;;;;;15.10;8.85;;;;;;;;;;4812129;29;20084;-79
2023/03/21 04:49:34;;;;;;;14.13;8.85;;;;;;;;;;4819949;29;20043;-79
2023/03/21 04:52:20;;;;;;;16.77;8.63;;;;;;;;;;4819317;29;20050;-79
2023/03/21 04:55:08;;;;;;;16.08;9.25;;;;;;;;;;4826877;29;20050;-78
2023/03/21 04:57:54;;;;;;;25.42;11.38;;;;;;;;;;4819558;29;20054;-79
2023/03/21 05:00:39;;;;;;;24.55;11.52;;;;;;;;;;4818986;29;20054;-78
2023/03/21 05:03:24;;;;;;;21.70;10.57;;;;;;;;;;4819113;29;20042;-80
2023/03/21 05:06:10;;;;;;;17.00;9.65;;;;;;;;;;4819324;29;20496;-80
2023/03/21 05:08:59;;;;;;;17.88;9.27;;;;;;;;;;4819067;29;20046;-79
2023/03/21 05:11:44;;;;;;;19.13;9.43;;;;;;;;;;4819227;29;20481;-79
2023/03/21 05:14:31;;;;;;;27.20;12.93;;;;;;;;;;4818616;29;20050;-79
2023/03/21 05:17:22;;;;;;;40.03;17.58;;;;;;;;;;4818623;29;20054;-79
2023/03/21 05:20:10;;;;;;;51.95;23.10;;;;;;;;;;4813151;29;20094;-79
2023/03/21 05:22:55;;;;;;;50.47;22.48;;;;;;;;;;4819024;29;20058;-79
2023/03/21 05:25:40;;;;;;;52.40;28.85;;;;;;;;;;4818844;29;20050;-79
2023/03/21 05:28:35;;;;;;;57.35;31.63;;;;;;;;;;4817312;29;20046;-79
2023/03/21 05:31:21;;;;;;;57.92;32.08;;;;;;;;;;4819224;29;20050;-78
2023/03/21 05:34:14;;;;;;;57.20;29.25;;;;;;;;;;4817959;29;20050;-80
2023/03/21 05:36:59;;;;;;;56.97;28.90;;;;;;;;;;4818657;29;20058;-79
2023/03/21 05:39:54;;;;;;;56.03;29.70;;;;;;;;;;4818252;29;20046;-80
2023/03/21 05:42:47;;;;;;;50.65;28.17;;;;;;;;;;4818372;29;20412;-79
2023/03/21 05:45:37;;;;;;;57.72;27.80;;;;;;;;;;4818377;29;20412;-80
2023/03/21 05:48:22;;;;;;;50.60;26.48;;;;;;;;;;4817717;29;20046;-80
2023/03/21 05:51:37;;;;;;;57.70;27.73;;;;;;;;;;4823134;29;20051;-80
2023/03/21 05:54:21;;;;;;;40.95;22.30;;;;;;;;;;4823002;29;20046;-79
2023/03/21 05:57:08;;;;;;;39.00;18.60;;;;;;;;;;4812800;29;20411;-80
2023/03/21 06:00:15;;;;;;;26.77;15.90;;;;;;;;;;4818223;29;20054;-79
2023/03/21 06:03:00;;;;;;;35.83;16.40;;;;;;;;;;4825258;29;20051;-79
2023/03/21 06:06:11;;;;;;;35.35;18.08;;;;;;;;;;4817405;29;20054;-79
2023/03/21 06:09:05;;;;;;;36.20;18.88;;;;;;;;;;4818087;29;20054;-80
2023/03/21 06:11:53;;;;;;;38.38;20.42;;;;;;;;;;4817779;29;20058;-79
2023/03/21 06:14:44;;;;;;;35.97;18.95;;;;;;;;;;4808830;29;20054;-80
2023/03/21 06:17:46;;;;;;;41.03;19.23;;;;;;;;;;4817308;29;20054;-80
2023/03/21 06:20:31;;;;;;;50.78;22.73;;;;;;;;;;4817774;29;20046;-80
2023/03/21 06:23:24;;;;;;;72.28;33.20;;;;;;;;;;4816891;29;20058;-79
2023/03/21 06:26:10;;;;;;;90.50;40.28;;;;;;;;;;4817714;29;20050;-80
2023/03/21 06:28:55;;;;;;;81.75;38.05;;;;;;;;;;4817262;29;20054;-80
2023/03/21 06:31:40;;;;;;;57.22;30.40;;;;;;;;;;4822579;29;20054;-80
2023/03/21 06:34:25;;;;;;;54.20;27.25;;;;;;;;;;4835900;29;20050;-79
2023/03/21 06:37:10;;;;;;;53.13;25.92;;;;;;;;;;4835731;29;20061;-79
2023/03/21 06:39:56;;;;;;;39.05;22.38;;;;;;;;;;4835791;29;20058;-79
2023/03/21 06:42:41;;;;;;;62.15;32.42;;;;;;;;;;4821538;29;20049;-79
2023/03/21 06:45:29;;;;;;;68.55;30.30;;;;;;;;;;4835527;29;20072;-79
2023/03/21 06:48:14;;;;;;;44.22;24.08;;;;;;;;;;4828868;29;20054;-80
2023/03/21 06:51:04;;;;;;;44.25;22.20;;;;;;;;;;4822336;29;20050;-80
2023/03/21 06:53:51;;;;;;;53.45;26.25;;;;;;;;;;4835424;29;20484;-79
2023/03/21 06:56:58;;;;;;;40.60;23.10;;;;;;;;;;4835344;29;20058;-79
2023/03/21 06:59:51;;;;;;;40.55;23.05;;;;;;;;;;4835289;29;20049;-80
2023/03/21 07:02:41;;;;;;;40.40;20.92;;;;;;;;;;4818099;29;20058;-80
2023/03/21 07:05:34;;;;;;;35.75;21.10;;;;;;;;;;4802380;29;20058;-79
2023/03/21 07:08:20;;;;;;;40.55;23.50;;;;;;;;;;4812015;29;20046;-78
2023/03/21 07:11:06;;;;;;;42.35;24.55;;;;;;;;;;4803582;29;20050;-80
2023/03/21 07:13:53;;;;;;;53.45;26.75;;;;;;;;;;4802705;29;20043;-79
2023/03/21 07:16:38;;;;;;;42.13;23.95;;;;;;;;;;4802732;29;20051;-79
2023/03/21 07:19:23;;;;;;;48.42;23.05;;;;;;;;;;4804454;29;20051;-78
2023/03/21 07:22:09;;;;;;;40.97;22.75;;;;;;;;;;4808797;29;20050;-79
2023/03/21 07:24:54;;;;;;;40.42;23.13;;;;;;;;;;4809970;29;20055;-79
2023/03/21 07:27:41;;;;;;;53.17;27.63;;;;;;;;;;4810280;29;20485;-78
2023/03/21 07:30:26;;;;;;;43.22;19.35;;;;;;;;;;4798575;29;20500;-79
2023/03/21 07:33:11;;;;;;;46.13;23.42;;;;;;;;;;4804594;29;20055;-80
2023/03/21 07:35:57;;;;;;;36.08;19.65;;;;;;;;;;4798486;29;20058;-79
2023/03/21 07:38:44;;;;;;;36.85;19.23;;;;;;;;;;4800808;29;20902;-78
2023/03/21 07:41:29;;;;;;;34.13;19.13;;;;;;;;;;4812169;29;20055;-78
2023/03/21 07:44:29;;;;;;;35.83;18.58;;;;;;;;;;4804558;29;20042;-79
2023/03/21 07:47:21;;;;;;;39.95;21.02;;;;;;;;;;4798385;29;20404;-80
2023/03/21 07:50:06;;;;;;;41.30;22.60;;;;;;;;;;4804247;29;20066;-79
2023/03/21 07:52:52;;;;;;;45.90;26.40;;;;;;;;;;4811991;29;20038;-79
2023/03/21 07:55:37;;;;;;;48.55;26.50;;;;;;;;;;4812021;29;20038;-78
2023/03/21 07:58:23;;;;;;;48.70;24.02;;;;;;;;;;4804063;29;20062;-80
2023/03/21 08:01:09;;;;;;;44.30;23.85;;;;;;;;;;4811968;29;20050;-79
2023/03/21 08:03:54;;;;;;;53.75;27.55;;;;;;;;;;4811791;29;20058;-82
2023/03/21 08:06:40;;;;;;;53.85;28.77;;;;;;;;;;4798572;29;20050;-79
2023/03/21 08:09:25;;;;;;;61.20;29.33;;;;;;;;;;4798185;29;20050;-79
2023/03/21 08:12:10;;;;;;;47.92;26.30;;;;;;;;;;4813715;29;20054;-79
2023/03/21 08:14:56;;;;;;;40.90;23.23;;;;;;;;;;4811721;29;20051;-79
2023/03/21 08:17:44;;;;;;;45.90;25.42;;;;;;;;;;4814282;29;20054;-81
2023/03/21 08:20:29;;;;;;;54.35;29.33;;;;;;;;;;4814893;29;20397;-78
2023/03/21 08:23:14;;;;;;;44.72;24.65;;;;;;;;;;4807757;29;20038;-78
2023/03/21 08:26:00;;;;;;;51.47;25.60;;;;;;;;;;4807822;29;20063;-78
2023/03/21 08:28:45;;;;;;;44.53;23.05;;;;;;;;;;4806634;29;20055;-78
2023/03/21 08:31:31;;;;;;;54.05;26.15;;;;;;;;;;4807433;29;20484;-78
2023/03/21 08:34:18;;;;;;;59.15;28.23;;;;;;;;;;4815599;29;20065;-78
2023/03/21 08:37:03;;;;;;;72.70;30.15;;;;;;;;;;4814718;29;20058;-81
2023/03/21 08:39:49;;;;;;;55.90;26.45;;;;;;;;;;4815052;29;20042;-79
2023/03/21 08:42:35;;;;;;;57.60;28.55;;;;;;;;;;4807283;29;20488;-79
2023/03/21 08:45:21;;;;;;;42.08;23.38;;;;;;;;;;4799815;29;20050;-80
2023/03/21 08:48:07;;;;;;;33.13;17.58;;;;;;;;;;4813046;29;20054;-79
2023/03/21 08:50:58;;;;;;;28.88;15.60;;;;;;;;;;4813144;29;20043;-80
2023/03/21 08:53:44;;;;;;;25.30;14.40;;;;;;;;;;4816774;29;20042;-79
2023/03/21 08:56:30;;;;;;;25.15;12.27;;;;;;;;;;4813180;29;20055;-79
2023/03/21 08:59:16;;;;;;;21.60;11.32;;;;;;;;;;4813027;29;20416;-79
2023/03/21 09:02:02;;;;;;;22.52;12.70;;;;;;;;;;4813554;29;20042;-79
2023/03/21 09:04:47;;;;;;;18.63;12.02;;;;;;;;;;4829425;29;20053;-79
2023/03/21 09:07:35;;;;;;;25.00;12.25;;;;;;;;;;4822046;29;20046;-79
2023/03/21 09:10:21;;;;;;;20.58;11.00;;;;;;;;;;4831318;29;20054;-80
2023/03/21 09:13:07;;;;;;;17.35;10.70;;;;;;;;;;4831129;29;20042;-80
2023/03/21 09:15:54;;;;;;;11.32;5.90;;;;;;;;;;4814474;29;20058;-79
2023/03/21 09:18:49;;;;;;;9.32;6.65;;;;;;;;;;4814087;29;20034;-80
2023/03/21 09:21:35;;;;;;;13.43;8.48;;;;;;;;;;4806341;29;20492;-80
2023/03/21 09:24:20;;;;;;;12.40;6.70;;;;;;;;;;4831172;29;20491;-80
2023/03/21 09:27:06;;;;;;;16.42;9.25;;;;;;;;;;4830397;29;20053;-79
2023/03/21 09:29:51;;;;;;;22.85;8.30;;;;;;;;;;4814134;29;20046;-80
2023/03/21 09:32:37;;;;;;;5.85;3.70;;;;;;;;;;4830813;29;20042;-79
2023/03/21 09:35:23;;;;;;;13.48;6.40;;;;;;;;;;4829404;29;20042;-80
2023/03/21 09:38:08;;;;;;;7.82;4.57;;;;;;;;;;4829222;29;20050;-80
2023/03/21 09:41:06;;;;;;;4.25;3.38;;;;;;;;;;4829279;29;20042;-80
2023/03/21 09:43:51;;;;;;;8.40;4.50;;;;;;;;;;4828796;29;20050;-80
2023/03/21 09:46:54;;;;;;;11.85;6.65;;;;;;;;;;4829609;29;20479;-80
2023/03/21 09:49:47;;;;;;;13.48;7.47;;;;;;;;;;4812852;29;20074;-80
2023/03/21 09:52:58;;;;;;;8.68;5.25;;;;;;;;;;4813833;29;20421;-82
2023/03/21 09:55:44;;;;;;;13.27;8.05;;;;;;;;;;4830625;29;20399;-80
2023/03/21 09:58:35;;;;;;;12.07;7.20;;;;;;;;;;4830755;29;20041;-80
2023/03/21 10:01:31;;;;;;;12.50;7.30;;;;;;;;;;4813379;29;20059;-81
2023/03/21 10:04:19;;;;;;;5.82;3.85;;;;;;;;;;4813620;29;20408;-81
2023/03/21 10:07:04;;;;;;;9.88;5.25;;;;;;;;;;4830066;29;20053;-79
2023/03/21 10:09:51;;;;;;;9.05;5.80;;;;;;;;;;4830466;29;20042;-81
2023/03/21 10:12:36;;;;;;;8.20;3.78;;;;;;;;;;4804789;29;20062;-79
2023/03/21 10:15:23;;;;;;;5.28;3.55;;;;;;;;;;4828879;29;20400;-80
2023/03/21 10:18:15;;;;;;;13.02;8.27;;;;;;;;;;4805351;29;20046;-81
2023/03/21 10:21:01;;;;;;;12.70;5.45;;;;;;;;;;4811062;29;20046;-83
2023/03/21 10:23:48;;;;;;;12.93;7.60;;;;;;;;;;4828391;29;20046;-80
2023/03/21 10:26:33;;;;;;;17.23;8.30;;;;;;;;;;4811096;29;20054;-80
2023/03/21 10:29:24;;;;;;;17.17;9.80;;;;;;;;;;4811979;29;20050;-79
2023/03/21 10:32:12;;;;;;;8.27;5.10;;;;;;;;;;4812213;29;20051;-81
2023/03/21 10:34:59;;;;;;;9.77;5.82;;;;;;;;;;4810863;29;20481;-80
2023/03/21 10:37:45;;;;;;;13.45;7.20;;;;;;;;;;4812175;29;20058;-79
2023/03/21 10:40:31;;;;;;;11.75;6.80;;;;;;;;;;4827498;29;20065;-78
2023/03/21 10:43:26;;;;;;;7.65;5.32;;;;;;;;;;4820678;29;20047;-81
2023/03/21 10:46:19;;;;;;;17.58;9.05;;;;;;;;;;4828745;29;20460;-78
2023/03/21 10:49:07;;;;;;;8.60;5.07;;;;;;;;;;4828661;29;20476;-77
2023/03/21 10:52:03;;;;;;;9.32;4.43;;;;;;;;;;4829837;29;20050;-78
2023/03/21 10:54:50;;;;;;;5.80;2.95;;;;;;;;;;4805517;29;20050;-77
2023/03/21 10:57:36;;;;;;;11.48;4.90;;;;;;;;;;4821008;29;20046;-82
2023/03/21 11:00:34;;;;;;;10.63;6.30;;;;;;;;;;4829645;29;20037;-79
2023/03/21 11:03:30;;;;;;;8.13;5.32;;;;;;;;;;4829541;29;20495;-81
2023/03/21 11:06:21;;;;;;;17.23;4.75;;;;;;;;;;4812892;29;20054;-78
2023/03/21 11:09:13;;;;;;;12.70;6.68;;;;;;;;;;4811375;29;20051;-78
2023/03/21 11:12:08;;;;;;;12.20;7.32;;;;;;;;;;4829588;29;20049;-77
2023/03/21 11:14:55;;;;;;;15.45;8.35;;;;;;;;;;4804367;29;20042;-77
2023/03/21 11:17:40;;;;;;;12.68;7.03;;;;;;;;;;4822084;29;20423;-78
2023/03/21 11:20:29;;;;;;;13.00;7.40;;;;;;;;;;4829700;29;20054;-77
2023/03/21 11:23:15;;;;;;;4.97;3.95;;;;;;;;;;4829060;29;20058;-78
2023/03/21 11:26:01;;;;;;;6.95;4.68;;;;;;;;;;4829300;29;20054;-78
2023/03/21 11:28:47;;;;;;;9.48;5.30;;;;;;;;;;4829378;29;20416;-77
2023/03/21 11:31:39;;;;;;;4.93;3.33;;;;;;;;;;4811915;29;20051;-78
2023/03/21 11:34:37;;;;;;;11.02;4.97;;;;;;;;;;4812450;29;20428;-77
2023/03/21 11:37:35;;;;;;;12.48;7.10;;;;;;;;;;4812554;29;20050;-78
2023/03/21 11:40:22;;;;;;;6.40;4.20;;;;;;;;;;4811919;29;20051;-79
2023/03/21 11:43:16;;;;;;;30.60;8.75;;;;;;;;;;4828536;29;20053;-80
2023/03/21 11:46:05;;;;;;;11.55;5.50;;;;;;;;;;4804239;29;20059;-78
2023/03/21 11:48:51;;;;;;;5.07;3.60;;;;;;;;;;4811565;29;20042;-77
2023/03/21 11:51:58;;;;;;;17.45;8.75;;;;;;;;;;4828964;29;20046;-78
2023/03/21 11:55:01;;;;;;;14.80;8.52;;;;;;;;;;4815889;29;20047;-79
2023/03/21 11:58:17;;;;;;;6.35;4.68;;;;;;;;;;4831575;29;20054;-82
2023/03/21 12:01:19;;;;;;;8.05;4.75;;;;;;;;;;4815710;29;20508;-78
2023/03/21 12:04:23;;;;;;;4.22;3.22;;;;;;;;;;4815592;29;20051;-78
2023/03/21 12:07:25;;;;;;;8.48;3.65;;;;;;;;;;4815347;29;20404;-77
2023/03/21 12:10:28;;;;;;;14.98;8.88;;;;;;;;;;4832835;29;20042;-77
2023/03/21 12:13:51;;;;;;;17.20;9.02;;;;;;;;;;4815045;29;20050;-82
2023/03/21 12:16:45;;;;;;;12.13;7.57;;;;;;;;;;4827531;29;20050;-79
2023/03/21 12:19:52;;;;;;;12.98;7.13;;;;;;;;;;4815046;29;20047;-80
2023/03/21 12:22:58;;;;;;;9.73;5.93;;;;;;;;;;4815559;29;20401;-80
2023/03/21 12:26:06;;;;;;;17.52;7.82;;;;;;;;;;4832265;29;20050;-78
2023/03/21 12:29:32;;;;;;;6.15;3.97;;;;;;;;;;4831335;29;20054;-79
2023/03/21 12:32:27;;;;;;;;;;;;;;;;;;4818920;29;20488;-82
2023/03/21 12:35:21;;;;;;;8.75;5.22;;;;;;;;;;4831574;29;19916;-80
2023/03/21 12:38:20;;;;;;;6.25;3.88;;;;;;;;;;4830796;29;20053;-80
2023/03/21 12:41:17;;;;;;;12.48;7.47;;;;;;;;;;4814706;29;20063;-79
2023/03/21 12:44:19;;;;;;;13.20;8.10;;;;;;;;;;4814980;29;20058;-80
2023/03/21 12:47:12;;;;;;;11.73;7.25;;;;;;;;;;4822120;29;20410;-79
2023/03/21 12:50:19;;;;;;;14.60;6.28;;;;;;;;;;4818163;29;20408;-81
2023/03/21 12:53:34;;;;;;;6.53;3.97;;;;;;;;;;4831409;29;20046;-79
2023/03/21 12:56:43;;;;;;;14.20;6.20;;;;;;;;;;4829186;29;20054;-80
2023/03/21 12:59:40;;;;;;;11.27;6.57;;;;;;;;;;4836596;29;20688;-80
2023/03/21 13:02:30;;;;;;;3.95;2.55;;;;;;;;;;4820945;29;20487;-80
2023/03/21 13:05:28;;;;;;;13.60;7.07;;;;;;;;;;4814889;29;20054;-81
2023/03/21 13:08:17;;;;;;;16.40;9.57;;;;;;;;;;4801100;29;20050;-80
2023/03/21 13:11:05;;;;;;;14.32;7.50;;;;;;;;;;4814336;29;20054;-82
2023/03/21 13:14:27;;;;;;;16.42;8.43;;;;;;;;;;4831305;29;20038;-78
2023/03/21 13:17:29;;;;;;;15.23;9.13;;;;;;;;;;4831009;29;20487;-80
2023/03/21 13:20:25;;;;;;;17.13;8.77;;;;;;;;;;4813777;29;20039;-79
2023/03/21 13:23:12;;;;;;;14.13;8.65;;;;;;;;;;4825792;29;20058;-82
2023/03/21 13:25:58;;;;;;;13.88;8.00;;;;;;;;;;4816123;29;20051;-79
2023/03/21 13:28:47;;;;;;;8.50;5.18;;;;;;;;;;4829164;29;20046;-81
2023/03/21 13:31:34;;;;;;;17.77;9.10;;;;;;;;;;4798685;29;20046;-80
2023/03/21 13:34:21;;;;;;;8.48;3.90;;;;;;;;;;4830783;29;20050;-79
2023/03/21 13:37:15;;;;;;;15.60;8.45;;;;;;;;;;4831216;29;20049;-80
2023/03/21 13:40:18;;;;;;;12.38;6.38;;;;;;;;;;4814106;29;20063;-79
2023/03/21 13:43:03;;;;;;;9.90;5.63;;;;;;;;;;4813331;29;20051;-79
2023/03/21 13:45:52;;;;;;;6.68;4.15;;;;;;;;;;4814016;29;20291;-79
2023/03/21 13:48:56;;;;;;;14.23;7.18;;;;;;;;;;4826127;29;20042;-80
2023/03/21 13:51:53;;;;;;;10.68;6.57;;;;;;;;;;4815315;29;20404;-80
2023/03/21 13:54:38;;;;;;;16.35;8.60;;;;;;;;;;4821208;29;20066;-78
2023/03/21 13:57:26;;;;;;;17.55;9.60;;;;;;;;;;4809637;29;20058;-80
2023/03/21 14:00:29;;;;;;;10.50;4.55;;;;;;;;;;4819247;29;20042;-82
2023/03/21 14:03:18;;;;;;;6.18;4.63;;;;;;;;;;4813568;29;20049;-81
2023/03/21 14:06:04;;;;;;;8.15;5.18;;;;;;;;;;4803692;29;20495;-78
2023/03/21 14:08:50;;;;;;;14.65;9.32;;;;;;;;;;4829096;29;20050;-80
2023/03/21 14:11:35;;;;;;;14.55;8.75;;;;;;;;;;4830610;29;20050;-81
2023/03/21 14:14:25;;;;;;;15.10;9.15;;;;;;;;;;4812731;29;20046;-80
2023/03/21 14:17:32;;;;;;;16.08;10.15;;;;;;;;;;4813553;29;20042;-81
2023/03/21 14:20:27;;;;;;;11.65;6.78;;;;;;;;;;4830010;29;20396;-82
2023/03/21 14:23:16;;;;;;;22.67;12.30;;;;;;;;;;4830371;29;20050;-81
2023/03/21 14:26:02;;;;;;;18.73;7.68;;;;;;;;;;4806046;29;20051;-80
2023/03/21 14:28:50;;;;;;;29.02;13.23;;;;;;;;;;4828594;29;20062;-81
2023/03/21 14:31:38;;;;;;;31.70;17.45;;;;;;;;;;4816457;29;20046;-80
2023/03/21 14:34:26;;;;;;;24.05;13.50;;;;;;;;;;4822040;29;20050;-79
2023/03/21 14:37:11;;;;;;;29.73;13.25;;;;;;;;;;4799579;29;20395;-80
2023/03/21 14:40:07;;;;;;;22.52;11.23;;;;;;;;;;4812302;29;20055;-79
2023/03/21 14:42:53;;;;;;;29.23;15.10;;;;;;;;;;4800878;29;20051;-80
2023/03/21 14:45:40;;;;;;;23.00;12.43;;;;;;;;;;4812731;29;20404;-80
2023/03/21 14:48:32;;;;;;;23.88;11.23;;;;;;;;;;4828557;29;20041;-81
2023/03/21 14:51:22;;;;;;;18.05;8.68;;;;;;;;;;4829773;29;20050;-79
2023/03/21 14:54:12;;;;;;;22.38;11.13;;;;;;;;;;4812987;29;20043;-80
2023/03/21 14:57:01;;;;;;;29.95;12.85;;;;;;;;;;4828560;29;20050;-81
2023/03/21 14:59:51;;;;;;;20.58;11.88;;;;;;;;;;4812418;29;20035;-78
2023/03/21 15:02:38;;;;;;;19.90;11.38;;;;;;;;;;4829142;29;20054;-79
2023/03/21 15:05:28;;;;;;;19.83;12.10;;;;;;;;;;4812304;29;20050;-79
2023/03/21 15:08:18;;;;;;;37.00;17.88;;;;;;;;;;4829214;29;20043;-81
2023/03/21 15:11:07;;;;;;;23.88;15.00;;;;;;;;;;4809693;29;20042;-80
2023/03/21 15:13:54;;;;;;;34.42;14.82;;;;;;;;;;4827567;29;20395;-81
2023/03/21 15:16:40;;;;;;;36.92;20.33;;;;;;;;;;4802506;29;20391;-81
2023/03/21 15:19:34;;;;;;;31.75;16.42;;;;;;;;;;4829545;29;20049;-80
2023/03/21 15:22:41;;;;;;;32.45;16.92;;;;;;;;;;4817279;29;20046;-81
2023/03/21 15:25:31;;;;;;;43.60;24.20;;;;;;;;;;4822362;29;20062;-81
2023/03/21 15:28:16;;;;;;;33.65;17.88;;;;;;;;;;4827101;29;20042;-80
2023/03/21 15:31:03;;;;;;;33.05;17.25;;;;;;;;;;4814341;29;20046;-81
2023/03/21 15:33:51;;;;;;;72.97;38.50;;;;;;;;;;4825642;29;20042;-81
2023/03/21 15:36:43;;;;;;;44.25;24.08;;;;;;;;;;4810914;29;20050;-81
2023/03/21 15:39:29;;;;;;;42.38;25.95;;;;;;;;;;4828265;29;20054;-82
2023/03/21 15:42:33;;;;;;;42.13;23.25;;;;;;;;;;4828392;29;20050;-79
2023/03/21 15:45:26;;;;;;;37.50;21.05;;;;;;;;;;4827574;29;20399;-81
2023/03/21 15:48:13;;;;;;;23.38;14.60;;;;;;;;;;4827428;29;20049;-81
2023/03/21 15:51:19;;;;;;;25.85;12.75;;;;;;;;;;4825843;29;20837;-80
2023/03/21 15:54:10;;;;;;;24.27;13.80;;;;;;;;;;4819447;29;20412;-79
2023/03/21 15:57:00;;;;;;;18.50;11.07;;;;;;;;;;4818133;29;20042;-81
2023/03/21 15:59:46;;;;;;;20.92;13.38;;;;;;;;;;4810880;29;20058;-80
2023/03/21 16:02:31;;;;;;;20.88;12.18;;;;;;;;;;4810841;29;20065;-80
2023/03/21 16:05:23;;;;;;;31.08;23.70;;;;;;;;;;4820595;29;20050;-82
2023/03/21 16:08:26;;;;;;;31.98;25.17;;;;;;;;;;4821223;29;20049;-80
2023/03/21 16:11:27;;;;;;;36.03;24.17;;;;;;;;;;4810232;29;20054;-83
2023/03/21 16:14:12;;;;;;;30.55;20.27;;;;;;;;;;4815411;29;20062;-80
2023/03/21 16:16:57;;;;;;;21.35;15.77;;;;;;;;;;4805916;29;20066;-82
2023/03/21 16:19:44;;;;;;;19.75;13.77;;;;;;;;;;4808102;29;20050;-81
2023/03/21 16:22:34;;;;;;;36.58;22.88;;;;;;;;;;4820274;29;20497;-79
2023/03/21 16:25:20;;;;;;;48.45;29.83;;;;;;;;;;4820842;29;20054;-81
2023/03/21 16:28:15;;;;;;;73.13;43.45;;;;;;;;;;4811908;29;20046;-81
2023/03/21 16:31:00;;;;;;;55.83;35.35;;;;;;;;;;4820657;29;20054;-82
2023/03/21 16:33:47;;;;;;;84.47;45.85;;;;;;;;;;4818036;29;20046;-80
2023/03/21 16:36:36;;;;;;;86.65;45.05;;;;;;;;;;4816530;29;20046;-81
2023/03/21 16:39:25;;;;;;;77.80;42.95;;;;;;;;;;4827730;29;20054;-81
2023/03/21 16:42:11;;;;;;;91.53;50.47;;;;;;;;;;4829260;29;20054;-81
2023/03/21 16:44:57;;;;;;;86.03;49.53;;;;;;;;;;4813105;29;20047;-81